OPI weather

Oenpelli Airport
Northern Territory, Australia

Public forecast

Using degrees Celsius for public forecast. Weather courtesy of forecast.io.

METAR (pilot weather report)

Closest report is Darwin International Airport, 125.0 nm (231.5 km) W. Retrieved 2019/05/21 02:30 UTC (7 minutes ago):

YPDN 210230Z 09013KT CAVOK 31/16 Q1013 NOSIG

TAF (pilot weather forecast)

Forecast is more than 12 hours old.

Closest forecast is Darwin International Airport, 125.0 nm (231.5 km) W. Retrieved 2019/05/20 00:31 UTC (1 day ago):

TAF YPDN 202314Z 2100/2206 10014KT CAVOK FM210700 06011KT CAVOK FM211200 08006KT 9999 FEW020 FM212300 10017G27KT CAVOK